»·PEaware :: ASA1950 KSLC-KBOI

ASA1950 :: KSLC-KBOI

FLIGHT INFORMATION

Flight Status: Arrived
Operator:
Alaska Airlines
More flights by this operator :: More flights under this callsign
Pilot: James D. (13710)
Aircraft: AIRBUS A320
(A320)
More flights by this aircraft type
Origin: KSLC Salt Lake City Intl
United States
Destination: KBOI Boise Air Terminal/Gowen
United States
More flights between these airports :: More routes between these airports
Route: CGULL1 TWF BROPH SPUUD3
File this flight plan on PilotEdge
Remarks:
Altitude:
(Current/Filed)
30,000ft
Speed:
(Current/Filed)
423kts
Departed: 08-Sep-18 11:51 AM
Arrived: 08-Sep-18 12:38 PM
Distance/Time
Traveled:
252nm/0:47
Distance/Time
To Go:
Arrived

Flight Plot

Page will automatically refresh every two minutes.

Flight plan parsing failed; only flown route is shown


Map Options




Map Legend


Flown Route
Filed Route
Departure Airport
Arrival Airport
Navaid (VOR, NDB)
Fix

Horizontal Profiles

Position Reports

Time Latitude Longitude Heading Altitude Ground
Speed
08-Sep-18 11:19 40.789201 -111.981568 99 4225ft 0kts
08-Sep-18 11:20 40.789201 -111.981568 99 4225ft 0kts
08-Sep-18 11:21 40.789201 -111.981568 99 4225ft 0kts
08-Sep-18 11:21 40.789201 -111.981568 99 4225ft 0kts
08-Sep-18 11:23 40.789201 -111.981568 99 4225ft 0kts
08-Sep-18 11:24 40.789201 -111.981568 99 4225ft 0kts
08-Sep-18 11:25 40.789201 -111.981568 99 4225ft 0kts
08-Sep-18 11:25 40.789201 -111.981568 99 4225ft 0kts
08-Sep-18 11:26 40.789201 -111.981568 99 4225ft 0kts
08-Sep-18 11:28 40.789201 -111.981568 99 4225ft 0kts
08-Sep-18 11:28 40.789201 -111.981568 99 4225ft 0kts
08-Sep-18 11:29 40.789201 -111.981568 99 4225ft 0kts
08-Sep-18 11:30 40.789201 -111.981568 99 4225ft 0kts
08-Sep-18 11:31 40.789201 -111.981568 99 4225ft 0kts
08-Sep-18 11:32 40.789201 -111.981568 99 4225ft 0kts
08-Sep-18 11:33 40.789201 -111.981568 99 4225ft 0kts
08-Sep-18 11:34 40.789201 -111.981568 99 4225ft 0kts
08-Sep-18 11:35 40.789201 -111.981568 99 4225ft 0kts
08-Sep-18 11:36 40.789212 -111.981650 99 4225ft 2kts
08-Sep-18 11:38 40.789191 -111.982299 55 4225ft 2kts
08-Sep-18 11:39 40.788883 -111.982537 8 4225ft 0kts
08-Sep-18 11:40 40.788883 -111.982537 8 4225ft 0kts
08-Sep-18 11:41 40.788984 -111.982519 7 4225ft 1kts
08-Sep-18 11:42 40.789456 -111.982448 6 4225ft 0kts
08-Sep-18 11:43 40.789458 -111.982447 6 4225ft 0kts
08-Sep-18 11:44 40.789458 -111.982447 6 4225ft 0kts
08-Sep-18 11:45 40.789936 -111.981661 79 4225ft 7kts
08-Sep-18 11:46 40.790049 -111.979849 78 4225ft 3kts
08-Sep-18 11:47 40.790697 -111.977220 13 4225ft 8kts
08-Sep-18 11:48 40.794494 -111.977633 354 4225ft 16kts
08-Sep-18 11:49 40.798562 -111.978100 355 4228ft 10kts
08-Sep-18 11:50 40.801709 -111.978481 354 4228ft 15kts
08-Sep-18 11:51 40.806387 -111.979016 355 4228ft 14kts
08-Sep-18 11:52 40.807386 -111.978725 63 4228ft 0kts
08-Sep-18 11:53 40.802727 -111.976386 173 4231ft 80kts
08-Sep-18 11:54 40.759031 -111.974415 197 5614ft 187kts
08-Sep-18 11:55 40.759265 -112.042550 307 7344ft 264kts
08-Sep-18 11:56 40.806828 -112.118206 307 10477ft 273kts
08-Sep-18 11:57 40.856214 -112.194607 316 13594ft 280kts
08-Sep-18 11:58 40.920891 -112.264587 317 15145ft 333kts
08-Sep-18 11:59 40.998430 -112.348415 317 16132ft 382kts
08-Sep-18 12:00 41.082812 -112.436842 323 18067ft 395kts
08-Sep-18 12:01 41.171661 -112.512300 320 19795ft 401kts
08-Sep-18 12:02 41.260952 -112.602582 317 21524ft 406kts
08-Sep-18 12:03 41.338274 -112.707891 307 23098ft 405kts
08-Sep-18 12:04 41.414261 -112.819488 305 24542ft 410kts
08-Sep-18 12:05 41.489182 -112.934405 305 25879ft 414kts
08-Sep-18 12:06 41.564737 -113.050424 305 27096ft 418kts
08-Sep-18 12:07 41.640782 -113.167605 305 28185ft 422kts
08-Sep-18 12:08 41.717265 -113.285902 305 29533ft 416kts
08-Sep-18 12:09 41.791953 -113.401880 304 30119ft 410kts
08-Sep-18 12:10 41.866448 -113.518017 304 30119ft 412kts
08-Sep-18 12:11 41.940953 -113.634625 304 30112ft 413kts
08-Sep-18 12:12 42.015037 -113.751080 304 30123ft 414kts
08-Sep-18 12:13 42.089639 -113.868776 304 30120ft 413kts
08-Sep-18 12:14 42.161796 -113.983056 304 30109ft 412kts
08-Sep-18 12:15 42.236011 -114.100497 304 30107ft 412kts
08-Sep-18 12:16 42.310189 -114.218264 304 30118ft 412kts
08-Sep-18 12:17 42.384150 -114.336165 304 30123ft 412kts
08-Sep-18 12:18 42.458085 -114.454498 304 30125ft 412kts
08-Sep-18 12:19 42.532169 -114.572787 304 30126ft 412kts
08-Sep-18 12:20 42.605128 -114.689309 304 29746ft 406kts
08-Sep-18 12:21 42.676409 -114.803623 304 25677ft 393kts
08-Sep-18 12:22 42.746390 -114.911744 307 23517ft 376kts
08-Sep-18 12:23 42.816861 -115.012877 308 21691ft 361kts
08-Sep-18 12:24 42.884234 -115.109896 308 19902ft 348kts
08-Sep-18 12:25 42.949601 -115.204462 309 18183ft 342kts
08-Sep-18 12:26 43.015801 -115.300657 310 17574ft 344kts
08-Sep-18 12:27 43.079312 -115.393262 310 14974ft 319kts
08-Sep-18 12:28 43.136933 -115.477618 310 13444ft 310kts
08-Sep-18 12:29 43.194814 -115.562337 310 12156ft 296kts
08-Sep-18 12:30 43.248023 -115.640411 310 11345ft 271kts
08-Sep-18 12:31 43.299430 -115.711104 314 10146ft 263kts
08-Sep-18 12:32 43.352234 -115.778941 314 8928ft 258kts
08-Sep-18 12:33 43.403260 -115.846201 312 7757ft 250kts
08-Sep-18 12:34 43.451283 -115.912483 313 6831ft 234kts
08-Sep-18 12:35 43.482870 -115.982217 294 6822ft 210kts
08-Sep-18 12:36 43.507549 -116.053937 295 5827ft 206kts
08-Sep-18 12:37 43.528690 -116.115623 296 4751ft 152kts
08-Sep-18 12:38 43.545278 -116.164540 299 3473ft 141kts
08-Sep-18 12:39 43.561834 -116.212229 296 2863ft 106kts
08-Sep-18 12:40 43.566492 -116.224096 13 2850ft 10kts

Navigation Log

Ident Type
Flight plan parsing failed, navigation log unavailable